Historyczne dane pomiarowe

Dodano dane terminowe – wersja testowa.

Dane z okresu 1951-2019

Wersja bazy: 1.34 [2019-03-16, lista zmian], aktualizacja planowana na 2019-04-15

Dane meteo z obszaru Polski uzyskane na podstawie danych udostępnionych przez Instytut Meteorologii i Gospodarki Wodnej – Państwowy Instytut Badawczy.

 

Wybierz Datę:    

       

TemperaturaWilgotnośćWiatrCiśnienieOpadyŚniegCzas trwania zjawisk
 Stacja t tx tn tng RH VA  wxwx mslp ppp RRR   cm mm wxwxwxwxwxwxwx
1983-08-14 16.8 17.8 15.2- 63.0- 2.0 8.0---- 0.0------------
1983-08-13 16.1 18.1 13.4- 72.0- 4.7 11.3---- 4.6------------
1983-08-12 18.7 20.4 14.1- 80.8- 7.7 10.0---- 2.1------------
1983-08-11 18.7 21.6 13.7- 84.0- 0.3 3.0---- 0.0------------
1983-08-10 17.2 21.2 11.4- 84.5- 1.0 5.7---- 0.0------------
1983-08-09 18.6 20.8 10.2- 78.0- 2.3 5.3---- 0.0------------
1983-08-08 18.0 19.5 15.4- 83.0- 2.3 6.7---- 0.0------------
1983-08-07 16.5 18.9 11.4- 87.0- 5.7 5.3---- 0.0------------
1983-08-06 16.7 18.8 10.3- 82.3- 3.3 4.3---- 0.0------------
1983-08-05 15.8 17.7 13.7- 82.0- 6.3 3.0---- 0.0------------
1983-08-04 17.0 19.7 12.4- 92.5- 7.0 7.3---- 2.3------------
1983-08-03 16.1 18.8 13.0- 88.5- 7.7 11.7---- 32.4------------
1983-08-02 19.6 28.4 16.2- 77.0- 5.3 3.3---- 1.1------------
1983-08-01 22.6 31.5 11.4- 50.8- 3.7 4.7---- 0.8------------
1983-07-31 17.3 20.5 10.2- 75.5- 3.7 3.7---- 0.0------------
1983-07-30 17.2 17.8 15.2- 72.8- 3.7 14.3---- 0.0------------
1983-07-29 17.4 18.1 15.7- 85.0- 7.0 10.0---- 0.8------------
1983-07-28 18.5 21.0 17.4- 83.8- 5.3 9.3---- 0.0------------
1983-07-27 19.2 29.1 11.8- 74.0- 4.0 4.3---- 0.0------------
1983-07-26 18.9 21.4 8.4- 81.3- 0.0 2.0---- 0.0------------
1983-07-25 17.5 18.2 11.3- 83.5- 2.0 3.0---- 0.0------------
1983-07-24 17.2 19.4 13.4- 80.5- 5.7 2.7---- 0.0------------
1983-07-23 18.5 19.6 16.4- 78.8- 2.7 4.0---- 0.0------------
1983-07-22 16.5 17.5 14.4- 77.8- 6.0 5.7---- 0.0------------
1983-07-21 15.8 16.7 12.2- 65.5- 3.7 12.3---- 0.0------------
1983-07-20 14.7 16.8 11.3- 64.3- 6.0 10.0---- 7.5------------
1983-07-19 18.2 24.5 15.9- 77.0- 6.3 8.0---- 0.7------------
1983-07-18 19.9 28.8 11.9- 78.8- 6.7 2.3---- 2.8------------
1983-07-17 18.1 18.8 15.9- 65.5- 1.7 3.3---- 0.0------------
1983-07-16 18.9 21.0 17.2- 75.5- 6.3 7.3---- 0.0------------
1983-07-15 17.8 20.8 13.4- 73.3- 6.7 5.7---- 0.0------------
1983-07-14 19.2 20.0 17.1- 71.5- 2.3 4.7---- 0.0------------
1983-07-13 19.4 21.6 17.4- 88.5- 6.3 4.7---- 0.0------------
1983-07-12 20.7 22.5 15.9- 86.3- 1.3 2.7---- 0.0------------
1983-07-11 19.1 22.0 12.9- 88.3- 4.3 2.3---- 0.0------------
1983-07-10 19.0 21.5 9.5- 78.5- 1.3 2.0---- 0.0------------
1983-07-09 16.7 19.0 9.7- 86.0- 4.3 2.0---- 0.0------------
1983-07-08 17.1 20.0 12.2- 87.0- 0.0 4.3---- 0.0------------
1983-07-07 19.3 24.9 12.2- 67.5- 0.7 6.3---- 0.0------------
1983-07-06 18.1 20.6 9.8- 80.5- 2.0 3.0---- 0.0------------
1983-07-05 16.7 18.5 14.4- 84.8- 3.0 4.3---- 0.0------------
1983-07-04 15.0 17.2 10.9- 86.0- 5.3 5.7---- 0.0------------
1983-07-03 15.7 18.5 9.9- 78.5- 6.3 2.0---- 0.0------------
1983-07-02 15.0 16.5 13.2- 76.5- 2.7 3.3---- 0.0------------
1983-07-01 15.0 21.3 12.4- 87.8- 6.7 3.3---- 0.9------------
1983-06-30 16.7 21.0 12.9- 81.8- 8.0 3.3---- 0.3------------
1983-06-29 14.1 17.6 10.2- 78.0- 6.7 5.3---- 0.4------------
1983-06-28 13.2 15.0 10.7- 79.5- 5.3 12.7---- 7.3------------
1983-06-27 15.1 18.6 8.9- 82.5- 8.0 3.7---- 2.7------------
1983-06-26 15.2 16.3 13.9- 83.5- 4.7 6.7---- 0.0------------
1983-06-25 16.2 22.3 12.6- 76.5- 3.7 6.0---- 0.0------------
1983-06-24 17.4 23.5 8.4- 56.3- 2.3 1.7---- 0.0------------
1983-06-23 13.9 18.0 5.9- 63.8- 1.0 2.3---- 0.0------------
1983-06-22 12.3 15.8 5.9- 71.8- 0.7 7.0---- 0.0------------
1983-06-21 14.6 17.8 6.4- 68.5- 2.7 7.3---- 0.0------------
1983-06-20 15.5 16.4 11.5- 82.0- 1.3 3.7---- 0.0------------
1983-06-19 15.6 17.0 11.4- 63.3- 0.7 5.0---- 0.0------------
1983-06-18 13.9 14.6 11.9- 83.5- 6.7 7.3---- 0.0------------
1983-06-17 13.5 14.5 11.6- 82.0- 5.0 5.7---- 0.0------------
1983-06-16 13.7 13.8 10.7- 86.3- 5.0 8.3---- 0.0------------
339.4 ms

 

Źródłem pochodzenia danych jest Instytut Meteorologii i Gospodarki Wodnej – Państwowy Instytut Badawczy. Dane Instytutu Meteorologii i Gospodarki Wodnej – Państwowego Instytutu Badawczego zostały przetworzone.

Dane źródłowe można odnaleźć na stronie https://dane.imgw.pl